»·PEaware :: SWA1786 KLAX-KSFO

SWA1786 :: KLAX-KSFO

FLIGHT INFORMATION

Flight Status: Arrived
Operator:
Southwest Airlines
More flights by this operator :: More flights under this callsign
Pilot: Hassan P. (16390)
Aircraft: BOEING 737-800
(B738)
More flights by this aircraft type
Origin: KLAX Los Angeles Intl
United States
Destination: KSFO San Francisco Intl
United States
More flights between these airports :: More routes between these airports
Route: +SUMMR1 STOKD SERFR SERFR3
File this flight plan on PilotEdge
Remarks: PBN / A1B1C1D1S1S2 DOF / 180611 REG / N441SB EET / KZOA0025 OPR / SWA PER / C RMK / TCAS
Altitude:
(Current/Filed)
38,000ft
Speed:
(Current/Filed)
428kts
Departed: 11-Jun-18 10:38 AM
Arrived: 11-Jun-18 11:35 AM
Distance/Time
Traveled:
293nm/0:57
Distance/Time
To Go:
Arrived

Flight Plot

Page will automatically refresh every two minutes.

Flight plan parsing failed; only flown route is shown


Map Options




Map Legend


Flown Route
Filed Route
Departure Airport
Arrival Airport
Navaid (VOR, NDB)
Fix

Horizontal Profiles

Position Reports

Time Latitude Longitude Heading Altitude Ground
Speed
11-Jun-18 10:14 33.947887 -118.400699 222 110ft 0kts
11-Jun-18 10:15 33.947887 -118.400699 222 110ft 0kts
11-Jun-18 10:16 33.947887 -118.400699 222 110ft 0kts
11-Jun-18 10:17 33.947887 -118.400699 222 110ft 0kts
11-Jun-18 10:18 33.947887 -118.400699 222 110ft 0kts
11-Jun-18 10:19 33.947887 -118.400699 222 110ft 0kts
11-Jun-18 10:20 33.947887 -118.400699 222 110ft 0kts
11-Jun-18 10:21 33.947887 -118.400699 222 110ft 0kts
11-Jun-18 10:22 33.947887 -118.400699 222 110ft 0kts
11-Jun-18 10:23 33.947887 -118.400699 222 110ft 0kts
11-Jun-18 10:24 33.947887 -118.400699 222 110ft 0kts
11-Jun-18 10:25 33.947887 -118.400699 222 110ft 0kts
11-Jun-18 10:26 33.948106 -118.400392 262 110ft 2kts
11-Jun-18 10:27 33.947968 -118.400072 324 111ft 0kts
11-Jun-18 10:28 33.947968 -118.400073 324 110ft 0kts
11-Jun-18 10:29 33.947968 -118.400073 324 110ft 0kts
11-Jun-18 10:30 33.947968 -118.400073 324 110ft 0kts
11-Jun-18 10:31 33.947968 -118.400073 324 110ft 0kts
11-Jun-18 10:32 33.947968 -118.400073 324 110ft 0kts
11-Jun-18 10:33 33.947968 -118.400073 324 110ft 0kts
11-Jun-18 10:34 33.949033 -118.401110 309 110ft 8kts
11-Jun-18 10:35 33.949137 -118.401264 308 110ft 0kts
11-Jun-18 10:36 33.949137 -118.401264 308 110ft 0kts
11-Jun-18 10:37 33.950085 -118.402607 265 110ft 9kts
11-Jun-18 10:38 33.946611 -118.436849 264 748ft 199kts
11-Jun-18 10:39 33.941378 -118.516835 266 3370ft 260kts
11-Jun-18 10:40 33.934664 -118.604161 265 5866ft 269kts
11-Jun-18 10:41 33.928325 -118.685349 264 8104ft 278kts
11-Jun-18 10:42 33.921016 -118.779214 264 10608ft 288kts
11-Jun-18 10:43 33.917002 -118.879855 271 13161ft 320kts
11-Jun-18 10:44 33.920510 -118.988868 272 15671ft 333kts
11-Jun-18 10:45 33.957031 -119.090578 302 18179ft 347kts
11-Jun-18 10:46 34.009983 -119.189114 306 20665ft 361kts
11-Jun-18 10:47 34.092888 -119.261582 324 23090ft 383kts
11-Jun-18 10:48 34.181283 -119.335948 323 24946ft 413kts
11-Jun-18 10:49 34.277764 -119.418602 323 26768ft 438kts
11-Jun-18 10:50 34.378536 -119.505520 323 28574ft 456kts
11-Jun-18 10:51 34.473668 -119.608643 313 30373ft 466kts
11-Jun-18 10:52 34.563442 -119.719254 313 31724ft 465kts
11-Jun-18 10:53 34.654793 -119.832203 313 31930ft 476kts
11-Jun-18 10:54 34.746632 -119.946111 313 31934ft 475kts
11-Jun-18 10:55 34.838987 -120.061047 313 31937ft 475kts
11-Jun-18 10:56 34.930553 -120.175358 312 31936ft 473kts
11-Jun-18 10:57 35.021460 -120.289200 312 31936ft 464kts
11-Jun-18 10:58 35.111060 -120.399568 315 31941ft 463kts
11-Jun-18 10:59 35.204332 -120.504112 315 31959ft 463kts
11-Jun-18 11:00 35.298956 -120.610393 315 31960ft 462kts
11-Jun-18 11:01 35.390817 -120.713930 314 31970ft 462kts
11-Jun-18 11:02 35.485009 -120.820460 315 32002ft 462kts
11-Jun-18 11:03 35.587095 -120.916625 320 32018ft 464kts
11-Jun-18 11:04 35.690022 -121.011595 320 32018ft 463kts
11-Jun-18 11:05 35.792013 -121.106430 320 32019ft 463kts
11-Jun-18 11:06 35.892922 -121.200622 320 32006ft 433kts
11-Jun-18 11:07 35.988473 -121.290231 320 30057ft 429kts
11-Jun-18 11:08 36.081830 -121.377488 323 28073ft 418kts
11-Jun-18 11:09 36.175999 -121.450463 326 26081ft 401kts
11-Jun-18 11:10 36.268140 -121.522028 326 24083ft 394kts
11-Jun-18 11:11 36.360192 -121.593933 327 22082ft 386kts
11-Jun-18 11:12 36.447614 -121.662474 326 20377ft 360kts
11-Jun-18 11:13 36.532354 -121.729212 326 20025ft 362kts
11-Jun-18 11:14 36.615647 -121.795043 327 17989ft 351kts
11-Jun-18 11:15 36.696548 -121.859162 327 15992ft 342kts
11-Jun-18 11:16 36.780551 -121.908726 347 14469ft 336kts
11-Jun-18 11:17 36.870657 -121.932421 347 12463ft 328kts
11-Jun-18 11:18 36.958171 -121.956667 343 10455ft 319kts
11-Jun-18 11:19 37.041558 -121.988776 341 8554ft 309kts
11-Jun-18 11:20 37.122887 -122.020450 341 7999ft 308kts
11-Jun-18 11:21 37.196208 -122.049065 342 7999ft 264kts
11-Jun-18 11:22 37.265029 -122.076012 342 7669ft 269kts
11-Jun-18 11:23 37.330786 -122.101855 342 6027ft 254kts
11-Jun-18 11:24 37.376293 -122.119772 342 6007ft 254kts
11-Jun-18 11:25 37.406311 -122.130347 344 5702ft 239kts
11-Jun-18 11:26 37.440094 -122.141899 345 4574ft 224kts
11-Jun-18 11:27 37.455757 -122.147256 345 4072ft 216kts
11-Jun-18 11:28 37.470997 -122.152473 345 3552ft 199kts
11-Jun-18 11:29 37.487664 -122.158182 345 3088ft 185kts
11-Jun-18 11:30 37.525096 -122.171030 343 3103ft 184kts
11-Jun-18 11:31 37.553404 -122.216119 298 1898ft 168kts
11-Jun-18 11:32 37.571653 -122.262794 298 1737ft 157kts
11-Jun-18 11:33 37.588085 -122.302164 299 1028ft 142kts
11-Jun-18 11:34 37.605702 -122.343746 298 396ft 134kts
11-Jun-18 11:35 37.618076 -122.373535 298 20ft 29kts
11-Jun-18 11:36 37.618876 -122.378863 251 19ft 11kts
11-Jun-18 11:37 37.617867 -122.380608 258 19ft 0kts
11-Jun-18 11:38 37.617866 -122.380613 258 19ft 0kts
11-Jun-18 11:39 37.617866 -122.380613 258 19ft 0kts
11-Jun-18 11:40 37.617866 -122.380613 258 19ft 0kts
11-Jun-18 11:41 37.617866 -122.380613 258 19ft 0kts
11-Jun-18 11:42 37.617866 -122.380613 258 19ft 0kts
11-Jun-18 11:43 37.617866 -122.380613 258 19ft 0kts
11-Jun-18 11:44 37.617866 -122.380613 258 19ft 0kts

Navigation Log

Ident Type
Flight plan parsing failed, navigation log unavailable